sensor_id;sensor_type;location;lat;lon;timestamp;pressure;altitude;pressure_sealevel;temperature;humidity
70434;BME280;57876;47.792;12.960;2023-04-27T00:00:37;96850.72;;;14.22;51.31
70434;BME280;57876;47.792;12.960;2023-04-27T00:03:01;96850.72;;;14.22;50.92
70434;BME280;57876;47.792;12.960;2023-04-27T00:05:28;96844.50;;;14.22;51.33
70434;BME280;57876;47.792;12.960;2023-04-27T00:07:53;96846.41;;;14.21;51.34
70434;BME280;57876;47.792;12.960;2023-04-27T00:10:17;96844.50;;;14.22;51.09
70434;BME280;57876;47.792;12.960;2023-04-27T00:12:51;96837.13;;;14.22;51.06
70434;BME280;57876;47.792;12.960;2023-04-27T00:15:15;96830.72;;;14.18;51.28
70434;BME280;57876;47.792;12.960;2023-04-27T00:17:40;96833.09;;;14.20;51.07
70434;BME280;57876;47.792;12.960;2023-04-27T00:20:17;96829.78;;;14.23;51.26
70434;BME280;57876;47.792;12.960;2023-04-27T00:22:42;96830.09;;;14.21;51.07
70434;BME280;57876;47.792;12.960;2023-04-27T00:25:07;96826.56;;;14.21;50.83
70434;BME280;57876;47.792;12.960;2023-04-27T00:27:32;96828.97;;;14.22;51.05
70434;BME280;57876;47.792;12.960;2023-04-27T00:29:56;96825.78;;;14.20;50.86
70434;BME280;57876;47.792;12.960;2023-04-27T00:32:41;96823.53;;;14.22;51.05
70434;BME280;57876;47.792;12.960;2023-04-27T00:35:06;96821.13;;;14.21;50.82
70434;BME280;57876;47.792;12.960;2023-04-27T00:37:31;96817.91;;;14.19;51.16
70434;BME280;57876;47.792;12.960;2023-04-27T00:39:59;96816.50;;;14.21;50.99
70434;BME280;57876;47.792;12.960;2023-04-27T00:42:24;96819.50;;;14.20;50.71
70434;BME280;57876;47.792;12.960;2023-04-27T00:44:49;96817.63;;;14.20;51.05
70434;BME280;57876;47.792;12.960;2023-04-27T00:47:14;96816.78;;;14.20;50.79
70434;BME280;57876;47.792;12.960;2023-04-27T00:49:44;96813.75;;;14.21;51.10
70434;BME280;57876;47.792;12.960;2023-04-27T00:52:09;96809.44;;;14.20;51.08
70434;BME280;57876;47.792;12.960;2023-04-27T00:54:33;96807.81;;;14.19;50.88
70434;BME280;57876;47.792;12.960;2023-04-27T01:00:06;96816.78;;;14.20;50.80
70434;BME280;57876;47.792;12.960;2023-04-27T01:02:30;96811.66;;;14.18;50.97
70434;BME280;57876;47.792;12.960;2023-04-27T01:04:55;96814.38;;;14.18;50.97
70434;BME280;57876;47.792;12.960;2023-04-27T01:07:26;96817.63;;;14.20;50.96
70434;BME280;57876;47.792;12.960;2023-04-27T01:09:50;96814.38;;;14.18;51.40
70434;BME280;57876;47.792;12.960;2023-04-27T01:12:15;96818.72;;;14.19;50.95
70434;BME280;57876;47.792;12.960;2023-04-27T01:14:39;96819.50;;;14.20;51.13
70434;BME280;57876;47.792;12.960;2023-04-27T01:17:04;96815.19;;;14.19;50.96
70434;BME280;57876;47.792;12.960;2023-04-27T01:19:28;96821.41;;;14.19;51.19
70434;BME280;57876;47.792;12.960;2023-04-27T01:21:53;96805.72;;;14.16;51.08
70434;BME280;57876;47.792;12.960;2023-04-27T01:24:17;96814.06;;;14.20;51.38
70434;BME280;57876;47.792;12.960;2023-04-27T01:26:42;96817.91;;;14.19;50.71
70434;BME280;57876;47.792;12.960;2023-04-27T01:29:06;96820.91;;;14.17;51.07
70434;BME280;57876;47.792;12.960;2023-04-27T01:31:31;96822.53;;;14.18;50.84
70434;BME280;57876;47.792;12.960;2023-04-27T01:33:55;96820.63;;;14.19;51.00
70434;BME280;57876;47.792;12.960;2023-04-27T01:36:20;96814.69;;;14.17;51.01
70434;BME280;57876;47.792;12.960;2023-04-27T01:38:44;96823.34;;;14.19;50.93
70434;BME280;57876;47.792;12.960;2023-04-27T01:41:09;96822.53;;;14.18;50.67
70434;BME280;57876;47.792;12.960;2023-04-27T01:43:34;96811.66;;;14.18;50.79
70434;BME280;57876;47.792;12.960;2023-04-27T01:46:11;96819.03;;;14.18;50.68
70434;BME280;57876;47.792;12.960;2023-04-27T01:48:37;96820.63;;;14.19;50.98
70434;BME280;57876;47.792;12.960;2023-04-27T01:51:01;96816.31;;;14.18;51.03
70434;BME280;57876;47.792;12.960;2023-04-27T01:53:26;96810.03;;;14.17;51.10
70434;BME280;57876;47.792;12.960;2023-04-27T01:55:51;96810.03;;;14.17;50.88
70434;BME280;57876;47.792;12.960;2023-04-27T01:58:34;96820.91;;;14.17;50.70
70434;BME280;57876;47.792;12.960;2023-04-27T02:00:58;96820.13;;;14.17;51.19
70434;BME280;57876;47.792;12.960;2023-04-27T02:03:23;96822.03;;;14.16;50.66
70434;BME280;57876;47.792;12.960;2023-04-27T02:05:48;96831.00;;;14.17;51.08
70434;BME280;57876;47.792;12.960;2023-04-27T02:08:13;96820.13;;;14.17;51.01
70434;BME280;57876;47.792;12.960;2023-04-27T02:10:37;96832.91;;;14.16;51.11
70434;BME280;57876;47.792;12.960;2023-04-27T02:13:02;96829.06;;;14.17;51.06
70434;BME280;57876;47.792;12.960;2023-04-27T02:15:26;96836.44;;;14.17;50.72
70434;BME280;57876;47.792;12.960;2023-04-27T02:17:51;96841.09;;;14.16;50.85
70434;BME280;57876;47.792;12.960;2023-04-27T02:20:15;96832.91;;;14.16;50.94
70434;BME280;57876;47.792;12.960;2023-04-27T02:22:43;96842.69;;;14.17;50.82
70434;BME280;57876;47.792;12.960;2023-04-27T02:25:09;96837.25;;;14.17;51.24
70434;BME280;57876;47.792;12.960;2023-04-27T02:27:38;96835.63;;;14.16;50.98
70434;BME280;57876;47.792;12.960;2023-04-27T02:30:07;96841.09;;;14.16;50.88
70434;BME280;57876;47.792;12.960;2023-04-27T02:32:32;96843.81;;;14.16;50.95
70434;BME280;57876;47.792;12.960;2023-04-27T02:34:56;96844.91;;;14.15;51.01
70434;BME280;57876;47.792;12.960;2023-04-27T02:37:20;96842.22;;;14.15;50.92
70434;BME280;57876;47.792;12.960;2023-04-27T02:39:45;96847.66;;;14.15;50.88
70434;BME280;57876;47.792;12.960;2023-04-27T02:42:10;96842.22;;;14.15;51.10
70434;BME280;57876;47.792;12.960;2023-04-27T02:44:34;96850.38;;;14.15;50.81
70434;BME280;57876;47.792;12.960;2023-04-27T02:46:59;96844.91;;;14.15;50.79
70434;BME280;57876;47.792;12.960;2023-04-27T02:49:23;96853.88;;;14.16;50.93
70434;BME280;57876;47.792;12.960;2023-04-27T02:51:47;96849.53;;;14.15;51.10
70434;BME280;57876;47.792;12.960;2023-04-27T02:54:12;96859.31;;;14.16;50.66
70434;BME280;57876;47.792;12.960;2023-04-27T02:56:43;96863.13;;;14.15;50.82
70434;BME280;57876;47.792;12.960;2023-04-27T02:59:08;96848.75;;;14.14;50.65
70434;BME280;57876;47.792;12.960;2023-04-27T03:01:32;96848.75;;;14.14;50.76
70434;BME280;57876;47.792;12.960;2023-04-27T03:03:56;96848.75;;;14.14;50.91
70434;BME280;57876;47.792;12.960;2023-04-27T03:06:31;96849.25;;;14.16;51.20
70434;BME280;57876;47.792;12.960;2023-04-27T03:08:56;96844.91;;;14.15;50.79
70434;BME280;57876;47.792;12.960;2023-04-27T03:11:20;96843.28;;;14.14;50.68
70434;BME280;57876;47.792;12.960;2023-04-27T03:13:44;96839.78;;;14.14;51.03
70434;BME280;57876;47.792;12.960;2023-04-27T03:16:09;96841.38;;;14.15;51.15
70434;BME280;57876;47.792;12.960;2023-04-27T03:18:34;96836.75;;;14.15;50.82
70434;BME280;57876;47.792;12.960;2023-04-27T03:21:09;96843.28;;;14.14;51.05
70434;BME280;57876;47.792;12.960;2023-04-27T03:23:34;96841.38;;;14.15;50.90
70434;BME280;57876;47.792;12.960;2023-04-27T03:25:58;96846.81;;;14.15;50.82
70434;BME280;57876;47.792;12.960;2023-04-27T03:28:23;96834.63;;;14.12;50.66
70434;BME280;57876;47.792;12.960;2023-04-27T03:30:47;96845.50;;;14.12;50.70
70434;BME280;57876;47.792;12.960;2023-04-27T03:33:11;96849.34;;;14.11;50.90
70434;BME280;57876;47.792;12.960;2023-04-27T03:35:37;96850.94;;;14.12;51.12
70434;BME280;57876;47.792;12.960;2023-04-27T03:38:01;96840.06;;;14.12;50.86
70434;BME280;57876;47.792;12.960;2023-04-27T03:40:26;96847.94;;;14.14;50.89
70434;BME280;57876;47.792;12.960;2023-04-27T03:42:53;96844.72;;;14.12;50.90
70434;BME280;57876;47.792;12.960;2023-04-27T03:45:17;96859.63;;;14.14;50.67
70434;BME280;57876;47.792;12.960;2023-04-27T03:47:42;96849.06;;;14.13;50.71
70434;BME280;57876;47.792;12.960;2023-04-27T03:50:06;96858.03;;;14.13;50.61
70434;BME280;57876;47.792;12.960;2023-04-27T03:52:33;96847.13;;;14.13;50.99
70434;BME280;57876;47.792;12.960;2023-04-27T03:54:57;96858.81;;;14.14;50.69
70434;BME280;57876;47.792;12.960;2023-04-27T03:57:24;96858.03;;;14.13;50.97
70434;BME280;57876;47.792;12.960;2023-04-27T03:59:49;96860.75;;;14.13;50.86
70434;BME280;57876;47.792;12.960;2023-04-27T04:02:13;96863.47;;;14.13;51.06
70434;BME280;57876;47.792;12.960;2023-04-27T04:04:38;96868.91;;;14.13;50.97
70434;BME280;57876;47.792;12.960;2023-04-27T04:07:02;96863.47;;;14.13;50.79
70434;BME280;57876;47.792;12.960;2023-04-27T04:09:26;96865.38;;;14.13;50.90
70434;BME280;57876;47.792;12.960;2023-04-27T04:11:51;96870.00;;;14.12;50.94
70434;BME280;57876;47.792;12.960;2023-04-27T04:14:16;96870.00;;;14.12;50.97
70434;BME280;57876;47.792;12.960;2023-04-27T04:16:40;96873.53;;;14.13;50.86
70434;BME280;57876;47.792;12.960;2023-04-27T04:19:05;96868.09;;;14.13;50.70
70434;BME280;57876;47.792;12.960;2023-04-27T04:21:30;96876.56;;;14.11;50.92
70434;BME280;57876;47.792;12.960;2023-04-27T04:23:59;96882.50;;;14.13;50.99
70434;BME280;57876;47.792;12.960;2023-04-27T04:26:24;96882.78;;;14.12;50.88
70434;BME280;57876;47.792;12.960;2023-04-27T04:28:48;96884.41;;;14.13;50.84
70434;BME280;57876;47.792;12.960;2023-04-27T04:31:12;96884.72;;;14.11;50.81
70434;BME280;57876;47.792;12.960;2023-04-27T04:33:39;96890.16;;;14.11;51.03
70434;BME280;57876;47.792;12.960;2023-04-27T04:36:04;96902.63;;;14.12;50.98
70434;BME280;57876;47.792;12.960;2023-04-27T04:38:28;96899.44;;;14.10;51.01
70434;BME280;57876;47.792;12.960;2023-04-27T04:40:53;96896.19;;;14.08;50.89
70434;BME280;57876;47.792;12.960;2023-04-27T04:43:17;96895.09;;;14.09;50.69
70434;BME280;57876;47.792;12.960;2023-04-27T04:45:42;96907.25;;;14.12;50.82
70434;BME280;57876;47.792;12.960;2023-04-27T04:48:06;96910.78;;;14.12;50.78
70434;BME280;57876;47.792;12.960;2023-04-27T04:50:31;96918.66;;;14.14;51.05
70434;BME280;57876;47.792;12.960;2023-04-27T04:52:56;96920.56;;;14.13;50.69
70434;BME280;57876;47.792;12.960;2023-04-27T04:55:20;96920.06;;;14.11;50.76
70434;BME280;57876;47.792;12.960;2023-04-27T04:57:45;96928.72;;;14.13;50.50
70434;BME280;57876;47.792;12.960;2023-04-27T05:00:10;96924.38;;;14.12;50.94
70434;BME280;57876;47.792;12.960;2023-04-27T05:02:40;96928.72;;;14.13;50.94
70434;BME280;57876;47.792;12.960;2023-04-27T05:05:05;96929.34;;;14.10;51.05
70434;BME280;57876;47.792;12.960;2023-04-27T05:07:29;96927.09;;;14.12;50.95
70434;BME280;57876;47.792;12.960;2023-04-27T05:09:54;96936.91;;;14.13;50.79
70434;BME280;57876;47.792;12.960;2023-04-27T05:12:21;96943.41;;;14.12;50.61
70434;BME280;57876;47.792;12.960;2023-04-27T05:14:45;96937.50;;;14.10;50.82
70434;BME280;57876;47.792;12.960;2023-04-27T05:17:11;96949.38;;;14.14;51.13
70434;BME280;57876;47.792;12.960;2023-04-27T05:19:35;96951.28;;;14.14;50.61
70434;BME280;57876;47.792;12.960;2023-04-27T05:22:00;96956.72;;;14.14;50.57
70434;BME280;57876;47.792;12.960;2023-04-27T05:24:25;96954.00;;;14.14;50.67
70434;BME280;57876;47.792;12.960;2023-04-27T05:26:50;96954.53;;;14.16;50.86
70434;BME280;57876;47.792;12.960;2023-04-27T05:29:14;96947.16;;;14.16;50.66
70434;BME280;57876;47.792;12.960;2023-04-27T05:31:38;96949.09;;;14.16;50.93
70434;BME280;57876;47.792;12.960;2023-04-27T05:34:03;96953.72;;;14.15;51.12
70434;BME280;57876;47.792;12.960;2023-04-27T05:36:27;96948.28;;;14.15;50.71
70434;BME280;57876;47.792;12.960;2023-04-27T05:38:51;96952.31;;;14.18;50.54
70434;BME280;57876;47.792;12.960;2023-04-27T05:41:16;96949.88;;;14.16;50.89
70434;BME280;57876;47.792;12.960;2023-04-27T05:43:40;96951.47;;;14.17;50.31
70434;BME280;57876;47.792;12.960;2023-04-27T05:46:05;96955.81;;;14.18;50.98
70434;BME280;57876;47.792;12.960;2023-04-27T05:48:29;96948.75;;;14.17;51.02
70434;BME280;57876;47.792;12.960;2023-04-27T05:51:01;96954.19;;;14.17;50.88
70434;BME280;57876;47.792;12.960;2023-04-27T05:53:26;96956.91;;;14.17;50.75
70434;BME280;57876;47.792;12.960;2023-04-27T05:55:51;96954.81;;;14.14;50.85
70434;BME280;57876;47.792;12.960;2023-04-27T05:58:15;96965.91;;;14.18;51.06
70434;BME280;57876;47.792;12.960;2023-04-27T06:00:40;96956.91;;;14.17;50.67
70434;BME280;57876;47.792;12.960;2023-04-27T06:03:04;96963.47;;;14.16;50.80
70434;BME280;57876;47.792;12.960;2023-04-27T06:05:29;96965.06;;;14.17;50.99
70434;BME280;57876;47.792;12.960;2023-04-27T06:07:53;96962.34;;;14.17;50.91
70434;BME280;57876;47.792;12.960;2023-04-27T06:10:18;96960.16;;;14.19;50.80
70434;BME280;57876;47.792;12.960;2023-04-27T06:12:42;96958.53;;;14.18;50.90
70434;BME280;57876;47.792;12.960;2023-04-27T06:15:07;96961.28;;;14.18;50.60
70434;BME280;57876;47.792;12.960;2023-04-27T06:17:35;96959.63;;;14.17;50.62
70434;BME280;57876;47.792;12.960;2023-04-27T06:20:00;96961.28;;;14.18;50.51
70434;BME280;57876;47.792;12.960;2023-04-27T06:22:24;96972.94;;;14.19;50.64
70434;BME280;57876;47.792;12.960;2023-04-27T06:24:48;96971.81;;;14.20;50.90
70434;BME280;57876;47.792;12.960;2023-04-27T06:27:13;96976.47;;;14.19;50.70
70434;BME280;57876;47.792;12.960;2023-04-27T06:29:37;96968.31;;;14.19;50.61
70434;BME280;57876;47.792;12.960;2023-04-27T06:32:01;96970.75;;;14.21;50.67
70434;BME280;57876;47.792;12.960;2023-04-27T06:34:29;96976.97;;;14.21;50.83
70434;BME280;57876;47.792;12.960;2023-04-27T06:36:54;96976.19;;;14.21;50.94
70434;BME280;57876;47.792;12.960;2023-04-27T06:39:18;96975.84;;;14.22;50.83
70434;BME280;57876;47.792;12.960;2023-04-27T06:41:43;96977.50;;;14.23;50.62
70434;BME280;57876;47.792;12.960;2023-04-27T06:44:07;96978.56;;;14.22;50.59
70434;BME280;57876;47.792;12.960;2023-04-27T06:46:31;96981.81;;;14.24;50.41
70434;BME280;57876;47.792;12.960;2023-04-27T06:48:56;96995.41;;;14.24;50.56
70434;BME280;57876;47.792;12.960;2023-04-27T06:51:20;96988.38;;;14.23;50.76
70434;BME280;57876;47.792;12.960;2023-04-27T06:53:45;96981.81;;;14.24;50.45
70434;BME280;57876;47.792;12.960;2023-04-27T06:56:10;96985.66;;;14.23;50.48
70434;BME280;57876;47.792;12.960;2023-04-27T06:58:35;96990.47;;;14.26;50.46
70434;BME280;57876;47.792;12.960;2023-04-27T07:01:00;96994.28;;;14.25;50.41
70434;BME280;57876;47.792;12.960;2023-04-27T07:03:25;96980.69;;;14.25;50.41
70434;BME280;57876;47.792;12.960;2023-04-27T07:05:50;96987.94;;;14.30;50.53
70434;BME280;57876;47.792;12.960;2023-04-27T07:08:15;96981.69;;;14.29;50.85
70434;BME280;57876;47.792;12.960;2023-04-27T07:10:39;96977.66;;;14.27;50.48
70434;BME280;57876;47.792;12.960;2023-04-27T07:13:04;96987.66;;;14.31;50.39
70434;BME280;57876;47.792;12.960;2023-04-27T07:15:29;96994.19;;;14.30;50.63
70434;BME280;57876;47.792;12.960;2023-04-27T07:17:54;96991.19;;;14.32;50.59
70434;BME280;57876;47.792;12.960;2023-04-27T07:20:19;96989.25;;;14.32;50.58
70434;BME280;57876;47.792;12.960;2023-04-27T07:22:43;96988.16;;;14.34;50.57
70434;BME280;57876;47.792;12.960;2023-04-27T07:25:08;96982.72;;;14.34;50.45
70434;BME280;57876;47.792;12.960;2023-04-27T07:27:33;96980.00;;;14.34;50.59
70434;BME280;57876;47.792;12.960;2023-04-27T07:29:58;96983.72;;;14.38;50.36
70434;BME280;57876;47.792;12.960;2023-04-27T07:32:23;96986.94;;;14.40;50.55
70434;BME280;57876;47.792;12.960;2023-04-27T07:34:47;96986.13;;;14.39;50.35
70434;BME280;57876;47.792;12.960;2023-04-27T07:37:12;96987.72;;;14.40;50.27
70434;BME280;57876;47.792;12.960;2023-04-27T07:39:37;96984.22;;;14.40;50.43
70434;BME280;57876;47.792;12.960;2023-04-27T07:42:02;96984.22;;;14.40;50.42
70434;BME280;57876;47.792;12.960;2023-04-27T07:44:26;96984.50;;;14.38;50.50
70434;BME280;57876;47.792;12.960;2023-04-27T07:46:51;96980.69;;;14.39;50.44
70434;BME280;57876;47.792;12.960;2023-04-27T07:49:17;96981.50;;;14.40;50.49
70434;BME280;57876;47.792;12.960;2023-04-27T07:51:43;96986.13;;;14.39;50.22
70434;BME280;57876;47.792;12.960;2023-04-27T07:54:07;96990.75;;;14.39;50.55
70434;BME280;57876;47.792;12.960;2023-04-27T07:56:32;96986.63;;;14.41;50.30
70434;BME280;57876;47.792;12.960;2023-04-27T07:58:59;96988.94;;;14.48;50.84
70434;BME280;57876;47.792;12.960;2023-04-27T08:01:23;96989.91;;;14.52;50.63
70434;BME280;57876;47.792;12.960;2023-04-27T08:03:48;96990.16;;;14.56;50.45
70434;BME280;57876;47.792;12.960;2023-04-27T08:06:12;96995.78;;;14.59;50.64
70434;BME280;57876;47.792;12.960;2023-04-27T08:08:36;96993.59;;;14.61;50.50
70434;BME280;57876;47.792;12.960;2023-04-27T08:11:01;96997.00;;;14.67;50.84
70434;BME280;57876;47.792;12.960;2023-04-27T08:13:25;96994.44;;;14.70;50.75
70434;BME280;57876;47.792;12.960;2023-04-27T08:15:50;96998.81;;;14.71;50.74
70434;BME280;57876;47.792;12.960;2023-04-27T08:18:14;97000.41;;;14.72;50.51
70434;BME280;57876;47.792;12.960;2023-04-27T08:20:40;96998.81;;;14.71;50.78
70434;BME280;57876;47.792;12.960;2023-04-27T08:23:05;97003.44;;;14.71;50.77
70434;BME280;57876;47.792;12.960;2023-04-27T08:25:29;96995.56;;;14.69;50.42
70434;BME280;57876;47.792;12.960;2023-04-27T08:27:54;96995.56;;;14.69;50.62
70434;BME280;57876;47.792;12.960;2023-04-27T08:30:18;96995.28;;;14.71;50.98
70434;BME280;57876;47.792;12.960;2023-04-27T08:32:43;97000.41;;;14.72;51.00
70434;BME280;57876;47.792;12.960;2023-04-27T08:35:07;97002.50;;;14.75;51.01
70434;BME280;57876;47.792;12.960;2023-04-27T08:37:32;97007.94;;;14.75;51.00
70434;BME280;57876;47.792;12.960;2023-04-27T08:39:56;97002.41;;;14.81;51.15
70434;BME280;57876;47.792;12.960;2023-04-27T08:42:20;96999.44;;;14.91;51.28
70434;BME280;57876;47.792;12.960;2023-04-27T08:44:45;96995.38;;;15.02;51.06
70434;BME280;57876;47.792;12.960;2023-04-27T08:47:10;96997.72;;;15.17;51.10
70434;BME280;57876;47.792;12.960;2023-04-27T08:49:35;97008.13;;;15.15;51.00
70434;BME280;57876;47.792;12.960;2023-04-27T08:52:01;96994.09;;;15.22;51.62
70434;BME280;57876;47.792;12.960;2023-04-27T08:54:26;96989.69;;;15.12;52.05
70434;BME280;57876;47.792;12.960;2023-04-27T08:56:50;96993.16;;;15.04;51.89
70434;BME280;57876;47.792;12.960;2023-04-27T08:59:15;96997.53;;;15.36;52.24
70434;BME280;57876;47.792;12.960;2023-04-27T09:01:45;96993.16;;;15.49;51.51
70434;BME280;57876;47.792;12.960;2023-04-27T09:04:10;96992.00;;;15.50;51.51
70434;BME280;57876;47.792;12.960;2023-04-27T09:06:35;96997.28;;;15.47;51.70
70434;BME280;57876;47.792;12.960;2023-04-27T09:09:00;97002.38;;;15.39;51.34
70434;BME280;57876;47.792;12.960;2023-04-27T09:11:30;97000.09;;;15.33;51.33
70434;BME280;57876;47.792;12.960;2023-04-27T09:13:54;97004.53;;;15.29;51.03
70434;BME280;57876;47.792;12.960;2023-04-27T09:16:23;97004.66;;;15.24;51.36
70434;BME280;57876;47.792;12.960;2023-04-27T09:18:48;97002.06;;;15.18;51.02
70434;BME280;57876;47.792;12.960;2023-04-27T09:21:29;96998.06;;;15.16;50.93
70434;BME280;57876;47.792;12.960;2023-04-27T09:23:57;96991.31;;;15.13;51.02
70434;BME280;57876;47.792;12.960;2023-04-27T09:26:25;96988.09;;;15.11;51.01
70434;BME280;57876;47.792;12.960;2023-04-27T09:28:52;96990.31;;;15.09;50.95
70434;BME280;57876;47.792;12.960;2023-04-27T09:31:17;96989.81;;;15.07;51.19
70434;BME280;57876;47.792;12.960;2023-04-27T09:33:42;96993.66;;;15.06;50.82
70434;BME280;57876;47.792;12.960;2023-04-27T09:36:07;96990.44;;;15.04;50.68
70434;BME280;57876;47.792;12.960;2023-04-27T09:38:32;96989.28;;;15.05;50.84
70434;BME280;57876;47.792;12.960;2023-04-27T09:40:58;96977.94;;;15.03;51.03
70434;BME280;57876;47.792;12.960;2023-04-27T09:43:23;96986.41;;;15.02;50.82
70434;BME280;57876;47.792;12.960;2023-04-27T09:45:48;96971.69;;;15.03;51.18
70434;BME280;57876;47.792;12.960;2023-04-27T09:48:13;96964.94;;;15.00;50.86
70434;BME280;57876;47.792;12.960;2023-04-27T09:50:39;96976.31;;;15.02;50.66
70434;BME280;57876;47.792;12.960;2023-04-27T09:53:06;96966.81;;;15.00;51.17
70434;BME280;57876;47.792;12.960;2023-04-27T09:55:43;96966.53;;;15.01;50.98
70434;BME280;57876;47.792;12.960;2023-04-27T10:01:29;96957.56;;;15.01;51.15
70434;BME280;57876;47.792;12.960;2023-04-27T10:09:14;96958.66;;;15.00;51.00
70434;BME280;57876;47.792;12.960;2023-04-27T10:11:42;96959.50;;;15.00;50.93
70434;BME280;57876;47.792;12.960;2023-04-27T10:14:08;96944.56;;;14.97;50.95
70434;BME280;57876;47.792;12.960;2023-04-27T10:16:49;96944.25;;;14.99;50.89
70434;BME280;57876;47.792;12.960;2023-04-27T10:19:14;96944.56;;;14.97;51.04
70434;BME280;57876;47.792;12.960;2023-04-27T10:27:00;96938.66;;;15.04;51.24
70434;BME280;57876;47.792;12.960;2023-04-27T10:29:34;96936.94;;;15.08;51.08
70434;BME280;57876;47.792;12.960;2023-04-27T10:32:05;96937.13;;;15.12;51.09
70434;BME280;57876;47.792;12.960;2023-04-27T10:34:33;96934.91;;;15.14;51.12
70434;BME280;57876;47.792;12.960;2023-04-27T10:37:04;96933.94;;;15.18;51.17
70434;BME280;57876;47.792;12.960;2023-04-27T10:39:34;96930.41;;;15.18;51.07
70434;BME280;57876;47.792;12.960;2023-04-27T10:42:02;96933.66;;;15.20;51.29
70434;BME280;57876;47.792;12.960;2023-04-27T10:44:29;96932.22;;;15.23;51.04
70434;BME280;57876;47.792;12.960;2023-04-27T10:46:55;96936.19;;;15.16;51.09
70434;BME280;57876;47.792;12.960;2023-04-27T10:49:20;96931.38;;;15.13;51.25
70434;BME280;57876;47.792;12.960;2023-04-27T10:51:46;96926.06;;;15.08;51.11
70434;BME280;57876;47.792;12.960;2023-04-27T10:54:15;96923.47;;;15.03;51.27
70434;BME280;57876;47.792;12.960;2023-04-27T10:56:40;96917.00;;;14.99;51.47
70434;BME280;57876;47.792;12.960;2023-04-27T10:59:05;96918.44;;;14.96;51.36
70434;BME280;57876;47.792;12.960;2023-04-27T11:01:33;96917.94;;;14.94;51.54
70434;BME280;57876;47.792;12.960;2023-04-27T11:03:58;96908.97;;;14.94;51.36
70434;BME280;57876;47.792;12.960;2023-04-27T11:06:24;96917.81;;;15.00;51.48
70434;BME280;57876;47.792;12.960;2023-04-27T11:08:48;96905.81;;;15.01;51.05
70434;BME280;57876;47.792;12.960;2023-04-27T11:11:14;96907.41;;;15.02;51.39
70434;BME280;57876;47.792;12.960;2023-04-27T11:13:42;96901.34;;;15.05;51.18
70434;BME280;57876;47.792;12.960;2023-04-27T11:16:06;96910.50;;;15.09;51.48
70434;BME280;57876;47.792;12.960;2023-04-27T11:18:31;96904.25;;;15.08;51.29
70434;BME280;57876;47.792;12.960;2023-04-27T11:21:25;96900.91;;;15.11;51.18
70434;BME280;57876;47.792;12.960;2023-04-27T11:23:49;96898.69;;;15.13;51.25
70434;BME280;57876;47.792;12.960;2023-04-27T11:26:17;96910.38;;;15.14;51.45
70434;BME280;57876;47.792;12.960;2023-04-27T11:29:00;96908.47;;;15.14;51.35
70434;BME280;57876;47.792;12.960;2023-04-27T11:31:44;96905.44;;;15.16;51.26
70434;BME280;57876;47.792;12.960;2023-04-27T11:34:22;96909.75;;;15.17;51.29
70434;BME280;57876;47.792;12.960;2023-04-27T11:37:00;96907.03;;;15.17;51.47
70434;BME280;57876;47.792;12.960;2023-04-27T11:39:27;96903.69;;;15.20;51.47
70434;BME280;57876;47.792;12.960;2023-04-27T11:41:52;96911.06;;;15.19;50.98
70434;BME280;57876;47.792;12.960;2023-04-27T11:44:16;96901.75;;;15.20;51.56
70434;BME280;57876;47.792;12.960;2023-04-27T11:46:43;96911.06;;;15.19;51.10
70434;BME280;57876;47.792;12.960;2023-04-27T11:49:07;96901.25;;;15.18;51.52
70434;BME280;57876;47.792;12.960;2023-04-27T11:51:32;96908.47;;;15.14;51.40
70434;BME280;57876;47.792;12.960;2023-04-27T11:54:00;96915.03;;;15.13;51.39
70434;BME280;57876;47.792;12.960;2023-04-27T11:56:33;96919.97;;;15.11;51.24
70434;BME280;57876;47.792;12.960;2023-04-27T11:58:57;96914.53;;;15.11;51.31
70434;BME280;57876;47.792;12.960;2023-04-27T12:01:21;96917.56;;;15.10;51.38
70434;BME280;57876;47.792;12.960;2023-04-27T12:03:47;96918.97;;;15.07;51.45
70434;BME280;57876;47.792;12.960;2023-04-27T12:06:12;96914.31;;;15.08;51.12
70434;BME280;57876;47.792;12.960;2023-04-27T12:08:36;96915.47;;;15.07;51.34
70434;BME280;57876;47.792;12.960;2023-04-27T12:11:01;96917.38;;;15.06;51.08
70434;BME280;57876;47.792;12.960;2023-04-27T12:13:25;96915.75;;;15.05;50.93
70434;BME280;57876;47.792;12.960;2023-04-27T12:15:50;96922.84;;;15.06;50.81
70434;BME280;57876;47.792;12.960;2023-04-27T12:18:29;96921.19;;;15.05;50.99
70434;BME280;57876;47.792;12.960;2023-04-27T12:20:54;96922.31;;;15.04;51.19
70434;BME280;57876;47.792;12.960;2023-04-27T12:23:18;96925.06;;;15.04;51.02
70434;BME280;57876;47.792;12.960;2023-04-27T12:25:58;96914.16;;;15.04;50.64
70434;BME280;57876;47.792;12.960;2023-04-27T12:28:23;96925.06;;;15.04;50.71
70434;BME280;57876;47.792;12.960;2023-04-27T12:30:48;96920.72;;;15.03;51.01
70434;BME280;57876;47.792;12.960;2023-04-27T12:33:12;96919.44;;;15.01;50.62
70434;BME280;57876;47.792;12.960;2023-04-27T12:35:37;96923.47;;;15.03;50.91
70434;BME280;57876;47.792;12.960;2023-04-27T12:38:01;96919.94;;;15.03;50.78
70434;BME280;57876;47.792;12.960;2023-04-27T12:40:26;96916.38;;;15.02;51.12
70434;BME280;57876;47.792;12.960;2023-04-27T12:42:51;96913.19;;;15.00;50.87
70434;BME280;57876;47.792;12.960;2023-04-27T12:45:15;96920.22;;;15.01;50.61
70434;BME280;57876;47.792;12.960;2023-04-27T12:47:39;96913.97;;;15.01;50.74
70434;BME280;57876;47.792;12.960;2023-04-27T12:50:06;96917.50;;;15.01;50.71
70434;BME280;57876;47.792;12.960;2023-04-27T12:52:31;96919.09;;;15.02;50.77
70434;BME280;57876;47.792;12.960;2023-04-27T12:54:56;96910.47;;;15.00;50.61
70434;BME280;57876;47.792;12.960;2023-04-27T12:57:23;96910.47;;;15.00;50.74
70434;BME280;57876;47.792;12.960;2023-04-27T12:59:47;96907.72;;;15.00;50.77